Time;durP1;ratioP1;P1;durP2;ratioP2;P2;SDS_P1;SDS_P2;PMS_P1;PMS_P2;Temp;Humidity;BMP_temperature;BMP_pressure;BME280_temperature;BME280_humidity;BME280_pressure;Samples;Min_cycle;Max_cycle;Signal;HPM_P1;HPM_P2
2023/07/06 00:02:24;;;;;;;;;;;14.90;99.90;;;;;;7620070;19;19915;-82
2023/07/06 00:04:56;;;;;;;;;;;14.80;99.90;;;;;;7605361;19;20714;-82
2023/07/06 00:07:28;;;;;;;;;;;14.80;99.90;;;;;;7613237;19;19918;-82
2023/07/06 00:10:00;;;;;;;;;;;14.80;99.90;;;;;;7611775;19;19923;-82
2023/07/06 00:12:34;;;;;;;;;;;14.80;99.90;;;;;;7612580;19;19953;-81
2023/07/06 00:15:09;;;;;;;;;;;14.70;99.90;;;;;;7614215;19;19926;-81
2023/07/06 00:17:41;;;;;;;;;;;14.80;99.90;;;;;;7612642;19;20864;-82
2023/07/06 00:20:14;;;;;;;;;;;14.80;99.90;;;;;;7607264;19;19947;-82
2023/07/06 00:22:46;;;;;;;;;;;14.90;99.90;;;;;;7595838;19;20299;-80
2023/07/06 00:25:19;;;;;;;;;;;14.80;99.90;;;;;;7610946;19;19929;-83
2023/07/06 00:27:53;;;;;;;;;;;14.80;99.90;;;;;;7607931;19;20020;-80
2023/07/06 00:30:40;;;;;;;;;;;14.70;99.90;;;;;;7618958;19;19914;-80
2023/07/06 00:33:15;;;;;;;;;;;14.80;99.90;;;;;;7606268;19;19978;-83
2023/07/06 00:35:48;;;;;;;;;;;14.70;99.90;;;;;;7612935;19;19939;-80
2023/07/06 00:38:21;;;;;;;;;;;14.70;99.90;;;;;;7623684;19;19927;-81
2023/07/06 00:43:54;;;;;;;;;;;14.70;99.90;;;;;;7536831;19;19922;-75
2023/07/06 00:46:29;;;;;;;;;;;14.80;99.90;;;;;;7587477;19;21088;-76
2023/07/06 00:49:03;;;;;;;;;;;14.80;99.90;;;;;;7578053;19;21374;-75
2023/07/06 00:51:37;;;;;;;;;;;14.80;99.90;;;;;;7601790;19;20999;-75
2023/07/06 00:54:12;;;;;;;;;;;14.80;99.90;;;;;;7594171;19;19933;-75
2023/07/06 00:56:46;;;;;;;;;;;14.80;99.90;;;;;;7597286;19;20167;-75
2023/07/06 00:59:21;;;;;;;;;;;14.90;99.90;;;;;;7596311;19;20546;-74
2023/07/06 01:01:53;;;;;;;;;;;14.90;99.90;;;;;;7572154;19;19947;-75
2023/07/06 01:04:26;;;;;;;;;;;14.80;99.90;;;;;;7536752;19;20712;-75
2023/07/06 01:06:59;;;;;;;;;;;14.80;99.90;;;;;;7582527;19;19918;-75
2023/07/06 01:09:31;;;;;;;;;;;14.80;99.90;;;;;;7592466;19;19922;-75
2023/07/06 01:12:04;;;;;;;;;;;14.70;99.90;;;;;;7584013;19;19930;-75
2023/07/06 01:14:38;;;;;;;;;;;14.80;99.90;;;;;;7592089;19;19915;-75
2023/07/06 01:17:29;;;;;;;;;;;14.80;99.90;;;;;;7589255;19;19951;-75
2023/07/06 01:20:14;;;;;;;;;;;14.90;99.90;;;;;;7576516;19;20389;-75
2023/07/06 01:22:58;;;;;;;;;;;14.80;99.90;;;;;;7596132;19;20541;-73
2023/07/06 01:25:40;;;;;;;;;;;14.80;99.90;;;;;;7599368;19;20674;-75
2023/07/06 01:28:17;;;;;;;;;;;14.80;99.90;;;;;;7587517;19;20478;-75
2023/07/06 01:31:17;;;;;;;;;;;14.90;99.90;;;;;;7591778;19;19926;-74
2023/07/06 01:33:53;;;;;;;;;;;14.90;99.90;;;;;;7584622;19;20349;-74
2023/07/06 01:36:35;;;;;;;;;;;14.70;99.90;;;;;;7594622;19;19922;-75
2023/07/06 01:39:28;;;;;;;;;;;14.80;99.90;;;;;;7592183;19;20394;-75
2023/07/06 01:42:09;;;;;;;;;;;14.80;99.90;;;;;;7591738;19;19930;-75
2023/07/06 01:44:45;;;;;;;;;;;14.80;99.90;;;;;;7600108;19;19926;-75
2023/07/06 01:47:18;;;;;;;;;;;14.80;99.90;;;;;;7587950;19;19918;-74
2023/07/06 01:49:51;;;;;;;;;;;14.80;99.90;;;;;;7593197;19;27368;-76
2023/07/06 01:52:26;;;;;;;;;;;14.70;99.90;;;;;;7595025;19;20658;-75
2023/07/06 01:55:37;;;;;;;;;;;14.60;99.90;;;;;;7591177;19;20974;-76
2023/07/06 01:58:15;;;;;;;;;;;14.60;99.90;;;;;;7583708;19;19962;-75
2023/07/06 02:00:49;;;;;;;;;;;14.50;99.90;;;;;;7596888;19;21312;-74
2023/07/06 02:03:24;;;;;;;;;;;14.60;99.90;;;;;;7566308;19;20918;-74
2023/07/06 02:05:57;;;;;;;;;;;14.60;99.90;;;;;;7580071;19;19937;-75
2023/07/06 02:08:30;;;;;;;;;;;14.60;99.90;;;;;;7593930;19;19926;-75
2023/07/06 02:11:02;;;;;;;;;;;14.60;99.90;;;;;;7593329;19;20770;-75
2023/07/06 02:13:34;;;;;;;;;;;14.60;99.90;;;;;;7587206;19;19922;-75
2023/07/06 02:16:07;;;;;;;;;;;14.60;99.90;;;;;;7595238;19;19961;-75
2023/07/06 02:18:39;;;;;;;;;;;14.50;99.90;;;;;;7594441;19;20365;-74
2023/07/06 02:21:13;;;;;;;;;;;14.30;99.90;;;;;;7568396;19;22914;-74
2023/07/06 02:23:46;;;;;;;;;;;14.20;99.90;;;;;;7586167;19;19929;-75
2023/07/06 02:26:18;;;;;;;;;;;14.20;99.90;;;;;;7593224;19;19923;-75
2023/07/06 02:28:52;;;;;;;;;;;14.20;99.90;;;;;;7578958;19;19934;-74
2023/07/06 02:31:24;;;;;;;;;;;14.20;99.90;;;;;;7585304;19;20031;-74
2023/07/06 02:33:56;;;;;;;;;;;14.20;99.90;;;;;;7579671;19;19975;-75
2023/07/06 02:36:29;;;;;;;;;;;14.10;99.90;;;;;;7593573;19;19918;-75
2023/07/06 02:39:03;;;;;;;;;;;14.10;99.90;;;;;;7595744;19;20521;-75
2023/07/06 02:41:35;;;;;;;;;;;14.00;99.90;;;;;;7592313;19;19927;-75
2023/07/06 02:44:07;;;;;;;;;;;14.00;99.90;;;;;;7588366;19;20405;-74
2023/07/06 02:46:39;;;;;;;;;;;14.00;99.90;;;;;;7597683;19;19958;-75
2023/07/06 02:49:12;;;;;;;;;;;14.00;99.90;;;;;;7592113;19;20002;-73
2023/07/06 02:51:46;;;;;;;;;;;14.00;99.90;;;;;;7587937;19;20754;-75
2023/07/06 02:54:20;;;;;;;;;;;13.90;99.90;;;;;;7591752;19;19965;-75
2023/07/06 02:56:53;;;;;;;;;;;13.90;99.90;;;;;;7599820;19;19921;-75
2023/07/06 02:59:25;;;;;;;;;;;13.90;99.90;;;;;;7588220;19;21076;-75
2023/07/06 03:02:00;;;;;;;;;;;13.90;99.90;;;;;;7597780;19;19930;-75
2023/07/06 03:04:32;;;;;;;;;;;13.90;99.90;;;;;;7583127;19;19930;-75
2023/07/06 03:07:08;;;;;;;;;;;13.80;99.90;;;;;;7573346;19;20005;-75
2023/07/06 03:09:42;;;;;;;;;;;13.70;99.90;;;;;;7598130;19;19923;-76
2023/07/06 03:12:14;;;;;;;;;;;13.70;99.90;;;;;;7591665;19;19956;-74
2023/07/06 03:14:47;;;;;;;;;;;13.70;99.90;;;;;;7585951;19;19925;-75
2023/07/06 03:17:19;;;;;;;;;;;13.70;99.90;;;;;;7594130;19;20362;-74
2023/07/06 03:19:51;;;;;;;;;;;13.70;99.90;;;;;;7588249;19;19925;-75
2023/07/06 03:22:23;;;;;;;;;;;13.70;99.90;;;;;;7579855;19;19942;-75
2023/07/06 03:24:56;;;;;;;;;;;13.60;99.90;;;;;;7597010;19;20458;-75
2023/07/06 03:27:28;;;;;;;;;;;13.50;99.90;;;;;;7589294;19;19927;-75
2023/07/06 03:30:01;;;;;;;;;;;13.60;99.90;;;;;;7586693;19;20429;-75
2023/07/06 03:32:37;;;;;;;;;;;13.70;99.90;;;;;;7587403;19;19918;-76
2023/07/06 03:35:11;;;;;;;;;;;13.70;99.90;;;;;;7595185;19;19922;-73
2023/07/06 03:37:45;;;;;;;;;;;13.70;99.90;;;;;;7601107;19;22618;-75
2023/07/06 03:40:18;;;;;;;;;;;13.50;99.90;;;;;;7602530;19;19933;-74
2023/07/06 03:42:53;;;;;;;;;;;13.70;99.90;;;;;;7595313;19;19923;-75
2023/07/06 03:45:25;;;;;;;;;;;13.70;99.90;;;;;;7592033;19;19926;-74
2023/07/06 03:47:58;;;;;;;;;;;13.70;99.90;;;;;;7598487;19;19934;-74
2023/07/06 03:50:31;;;;;;;;;;;13.80;99.90;;;;;;7594699;19;19956;-75
2023/07/06 03:53:03;;;;;;;;;;;13.70;99.90;;;;;;7596272;19;19947;-74
2023/07/06 03:55:37;;;;;;;;;;;13.70;99.90;;;;;;7596826;19;19926;-74
2023/07/06 03:58:09;;;;;;;;;;;13.70;99.90;;;;;;7591270;19;20400;-74
2023/07/06 04:00:41;;;;;;;;;;;13.70;99.90;;;;;;7593791;19;19982;-74
2023/07/06 04:03:13;;;;;;;;;;;13.70;99.90;;;;;;7591683;19;19919;-74
2023/07/06 04:05:48;;;;;;;;;;;13.70;99.90;;;;;;7591305;19;21181;-74
2023/07/06 04:08:22;;;;;;;;;;;13.70;99.90;;;;;;7578939;19;20210;-74
2023/07/06 04:10:54;;;;;;;;;;;13.60;99.90;;;;;;7589991;19;19938;-75
2023/07/06 04:13:26;;;;;;;;;;;13.60;99.90;;;;;;7574238;19;20827;-75
2023/07/06 04:15:58;;;;;;;;;;;13.70;99.90;;;;;;7565832;19;19923;-75
2023/07/06 04:18:33;;;;;;;;;;;13.80;99.90;;;;;;7580027;19;19922;-75
2023/07/06 04:21:05;;;;;;;;;;;13.80;99.90;;;;;;7585448;19;19976;-75
2023/07/06 04:23:37;;;;;;;;;;;13.70;99.90;;;;;;7594348;19;19926;-75
2023/07/06 04:26:10;;;;;;;;;;;13.70;99.90;;;;;;7583955;19;20529;-75
2023/07/06 04:28:43;;;;;;;;;;;13.70;99.90;;;;;;7581980;19;20403;-75
2023/07/06 04:31:15;;;;;;;;;;;13.80;99.90;;;;;;7589541;19;19923;-75
2023/07/06 04:33:47;;;;;;;;;;;13.90;99.90;;;;;;7590229;19;19918;-75
2023/07/06 04:36:19;;;;;;;;;;;13.90;99.90;;;;;;7584629;19;19982;-75
2023/07/06 04:38:51;;;;;;;;;;;13.90;99.90;;;;;;7594831;19;19927;-75
2023/07/06 04:41:26;;;;;;;;;;;13.90;99.90;;;;;;7585125;19;19923;-75
2023/07/06 04:43:58;;;;;;;;;;;13.90;99.90;;;;;;7592117;19;19922;-75
2023/07/06 04:46:30;;;;;;;;;;;13.90;99.90;;;;;;7591182;19;19930;-75
2023/07/06 04:49:03;;;;;;;;;;;13.90;99.90;;;;;;7583029;19;21105;-75
2023/07/06 04:51:35;;;;;;;;;;;13.90;99.90;;;;;;7585737;19;19923;-74
2023/07/06 04:54:08;;;;;;;;;;;14.10;99.90;;;;;;7592529;19;22105;-74
2023/07/06 04:56:41;;;;;;;;;;;14.20;99.90;;;;;;7572012;19;19960;-75
2023/07/06 04:59:13;;;;;;;;;;;14.30;99.90;;;;;;7575769;19;19989;-75
2023/07/06 05:01:45;;;;;;;;;;;14.30;99.90;;;;;;7578096;19;19942;-75
2023/07/06 05:04:18;;;;;;;;;;;14.50;99.90;;;;;;7566433;19;20877;-75
2023/07/06 05:06:52;;;;;;;;;;;14.60;99.90;;;;;;7554377;19;20315;-75
2023/07/06 05:09:25;;;;;;;;;;;14.60;99.90;;;;;;7551636;19;19915;-75
2023/07/06 05:11:58;;;;;;;;;;;14.70;99.90;;;;;;7579334;19;20005;-75
2023/07/06 05:14:31;;;;;;;;;;;14.70;99.90;;;;;;7574942;19;19957;-75
2023/07/06 05:17:03;;;;;;;;;;;14.80;99.90;;;;;;7588852;19;19922;-75
2023/07/06 05:19:36;;;;;;;;;;;14.90;99.90;;;;;;7594415;19;19933;-75
2023/07/06 05:22:08;;;;;;;;;;;15.00;99.90;;;;;;7588458;19;19922;-75
2023/07/06 05:24:40;;;;;;;;;;;15.10;99.90;;;;;;7576671;19;19918;-75
2023/07/06 05:27:12;;;;;;;;;;;15.10;99.90;;;;;;7537173;19;21482;-75
2023/07/06 05:29:45;;;;;;;;;;;15.30;99.90;;;;;;7562123;19;19915;-75
2023/07/06 05:32:17;;;;;;;;;;;15.40;99.90;;;;;;7585778;19;20821;-75
2023/07/06 05:34:49;;;;;;;;;;;15.40;99.90;;;;;;7601636;19;19984;-75
2023/07/06 05:37:21;;;;;;;;;;;15.50;99.90;;;;;;7591796;19;19952;-75
2023/07/06 05:40:08;;;;;;;;;;;15.60;99.90;;;;;;7583038;19;19957;-74
2023/07/06 05:42:40;;;;;;;;;;;15.70;99.90;;;;;;7592783;19;19918;-74
2023/07/06 05:45:13;;;;;;;;;;;15.80;99.90;;;;;;7580089;19;20275;-75
2023/07/06 05:47:46;;;;;;;;;;;16.00;99.90;;;;;;7601749;19;21403;-75
2023/07/06 05:50:18;;;;;;;;;;;16.00;99.90;;;;;;7591073;19;22921;-75
2023/07/06 05:52:50;;;;;;;;;;;16.10;99.90;;;;;;7589383;19;19923;-75
2023/07/06 05:55:23;;;;;;;;;;;16.30;99.90;;;;;;7595413;19;19955;-75
2023/07/06 05:57:55;;;;;;;;;;;16.30;99.90;;;;;;7600518;19;19925;-75
2023/07/06 06:00:28;;;;;;;;;;;16.40;99.90;;;;;;7586150;19;19922;-75
2023/07/06 06:03:01;;;;;;;;;;;16.60;99.90;;;;;;7597994;19;19923;-74
2023/07/06 06:05:34;;;;;;;;;;;16.60;99.90;;;;;;7590881;19;21141;-75
2023/07/06 06:08:06;;;;;;;;;;;16.70;99.90;;;;;;7597065;19;19926;-75
2023/07/06 06:10:39;;;;;;;;;;;16.80;99.90;;;;;;7598914;19;20957;-75
2023/07/06 06:13:11;;;;;;;;;;;16.90;99.90;;;;;;7590028;19;20635;-75
2023/07/06 06:15:43;;;;;;;;;;;17.00;99.90;;;;;;7598536;19;19926;-75
2023/07/06 06:18:15;;;;;;;;;;;17.10;99.90;;;;;;7600928;19;20001;-75
2023/07/06 06:20:48;;;;;;;;;;;17.20;99.90;;;;;;7598185;19;19954;-75
2023/07/06 06:23:20;;;;;;;;;;;17.30;99.90;;;;;;7585914;19;21279;-75
2023/07/06 06:25:52;;;;;;;;;;;17.50;99.90;;;;;;7591221;19;19919;-75
2023/07/06 06:28:26;;;;;;;;;;;17.60;99.90;;;;;;7589423;19;19933;-76
2023/07/06 06:30:58;;;;;;;;;;;17.70;99.90;;;;;;7585332;19;19926;-75
2023/07/06 06:33:31;;;;;;;;;;;17.90;99.90;;;;;;7583653;19;19994;-75
2023/07/06 06:36:03;;;;;;;;;;;18.20;99.90;;;;;;7599344;19;19922;-75
2023/07/06 06:38:35;;;;;;;;;;;18.30;99.90;;;;;;7588922;19;20031;-75
2023/07/06 06:41:08;;;;;;;;;;;18.50;99.90;;;;;;7562501;19;20789;-75
2023/07/06 06:43:41;;;;;;;;;;;18.70;99.90;;;;;;7570342;19;19926;-74
2023/07/06 06:46:13;;;;;;;;;;;18.60;99.90;;;;;;7585168;19;19918;-76
2023/07/06 06:48:45;;;;;;;;;;;18.50;99.90;;;;;;7597660;19;20320;-75
2023/07/06 06:51:18;;;;;;;;;;;18.50;99.90;;;;;;7573579;19;19929;-75
2023/07/06 06:53:53;;;;;;;;;;;18.60;99.90;;;;;;7587481;19;19953;-75
2023/07/06 06:56:25;;;;;;;;;;;18.60;99.90;;;;;;7587313;19;19964;-76
2023/07/06 06:58:57;;;;;;;;;;;18.60;99.90;;;;;;7593029;19;20917;-76
2023/07/06 07:01:31;;;;;;;;;;;18.60;99.90;;;;;;7586162;19;20910;-75
2023/07/06 07:04:04;;;;;;;;;;;18.60;99.90;;;;;;7593715;19;20372;-75
2023/07/06 07:06:38;;;;;;;;;;;18.50;99.90;;;;;;7593106;19;19923;-75
2023/07/06 07:09:12;;;;;;;;;;;18.60;99.90;;;;;;7586949;19;19914;-75
2023/07/06 07:11:45;;;;;;;;;;;18.70;99.90;;;;;;7598034;19;19927;-74
2023/07/06 07:14:17;;;;;;;;;;;18.90;99.70;;;;;;7594129;19;19933;-75
2023/07/06 07:16:50;;;;;;;;;;;19.00;98.70;;;;;;7605946;19;20334;-75
2023/07/06 07:19:23;;;;;;;;;;;19.20;98.20;;;;;;7603319;19;19929;-76
2023/07/06 07:21:57;;;;;;;;;;;19.40;96.90;;;;;;7602002;19;19923;-76
2023/07/06 07:24:30;;;;;;;;;;;19.60;96.60;;;;;;7602023;19;19923;-76
2023/07/06 07:27:04;;;;;;;;;;;19.70;97.30;;;;;;7606900;19;20493;-75
2023/07/06 07:29:36;;;;;;;;;;;19.80;95.80;;;;;;7588812;19;20005;-75
2023/07/06 07:32:08;;;;;;;;;;;19.90;94.70;;;;;;7598273;19;20742;-75
2023/07/06 07:34:40;;;;;;;;;;;20.10;95.70;;;;;;7601291;19;20378;-76
2023/07/06 07:37:14;;;;;;;;;;;20.30;93.80;;;;;;7605909;19;19922;-75
2023/07/06 07:39:46;;;;;;;;;;;20.40;93.00;;;;;;7595863;19;19933;-75
2023/07/06 07:42:19;;;;;;;;;;;20.50;92.00;;;;;;7584766;19;20701;-75
2023/07/06 07:44:51;;;;;;;;;;;20.60;91.00;;;;;;7594020;19;19986;-76
2023/07/06 07:47:24;;;;;;;;;;;20.60;91.00;;;;;;7590789;19;19926;-75
2023/07/06 07:49:57;;;;;;;;;;;20.60;91.00;;;;;;7604255;19;19923;-76
2023/07/06 07:52:29;;;;;;;;;;;20.40;91.30;;;;;;7596590;19;19933;-75
2023/07/06 07:55:01;;;;;;;;;;;20.40;92.10;;;;;;7591616;19;20323;-76
2023/07/06 07:57:33;;;;;;;;;;;20.40;90.90;;;;;;7592340;19;19922;-75
2023/07/06 08:00:10;;;;;;;;;;;20.50;90.70;;;;;;7602482;19;21212;-75
2023/07/06 08:02:45;;;;;;;;;;;20.50;89.70;;;;;;7595936;19;19927;-75
2023/07/06 08:05:18;;;;;;;;;;;20.50;87.60;;;;;;7604348;19;20020;-76
2023/07/06 08:07:50;;;;;;;;;;;20.50;86.70;;;;;;7599972;19;20462;-75
2023/07/06 08:10:23;;;;;;;;;;;20.50;88.90;;;;;;7598440;19;19960;-75
2023/07/06 08:12:55;;;;;;;;;;;20.60;88.90;;;;;;7607459;19;19926;-76
2023/07/06 08:15:27;;;;;;;;;;;20.50;86.50;;;;;;7603352;19;19928;-76
2023/07/06 08:18:00;;;;;;;;;;;20.50;86.70;;;;;;7610125;19;19926;-75
2023/07/06 08:20:33;;;;;;;;;;;20.50;86.40;;;;;;7602619;19;19927;-75
2023/07/06 08:23:27;;;;;;;;;;;20.70;87.10;;;;;;7593491;19;19922;-76
2023/07/06 08:25:59;;;;;;;;;;;20.70;85.80;;;;;;7600488;19;19926;-76
2023/07/06 08:28:31;;;;;;;;;;;20.80;86.90;;;;;;7596748;19;19952;-76
2023/07/06 08:31:12;;;;;;;;;;;20.90;86.40;;;;;;7605523;19;19922;-75
2023/07/06 08:33:46;;;;;;;;;;;20.80;88.00;;;;;;7588273;19;19922;-76
2023/07/06 08:36:20;;;;;;;;;;;21.00;88.10;;;;;;7607185;19;19939;-76
2023/07/06 08:38:54;;;;;;;;;;;21.40;89.00;;;;;;7601504;19;19934;-76
2023/07/06 08:41:35;;;;;;;;;;;21.70;85.90;;;;;;7595697;19;19982;-76
2023/07/06 08:44:09;;;;;;;;;;;21.70;84.50;;;;;;7582715;19;19919;-76
2023/07/06 08:46:45;;;;;;;;;;;21.70;83.30;;;;;;7577180;19;19931;-75
2023/07/06 08:49:35;;;;;;;;;;;21.60;83.80;;;;;;7600009;19;19926;-74
2023/07/06 08:52:10;;;;;;;;;;;21.70;82.70;;;;;;7590333;19;19926;-76
2023/07/06 08:54:46;;;;;;;;;;;21.70;83.20;;;;;;7596857;19;19922;-75
2023/07/06 08:57:20;;;;;;;;;;;21.70;84.40;;;;;;7599767;19;19926;-74
2023/07/06 08:59:52;;;;;;;;;;;21.60;83.90;;;;;;7595430;19;20546;-75
2023/07/06 09:02:25;;;;;;;;;;;21.60;82.50;;;;;;7587336;19;19926;-76
2023/07/06 09:05:00;;;;;;;;;;;21.60;82.40;;;;;;7602325;19;19954;-75
2023/07/06 09:07:34;;;;;;;;;;;21.60;82.20;;;;;;7601298;19;19944;-75
2023/07/06 09:10:15;;;;;;;;;;;21.60;82.20;;;;;;7606762;19;19918;-75
2023/07/06 09:13:11;;;;;;;;;;;21.60;81.60;;;;;;7597332;19;19922;-75
2023/07/06 09:15:44;;;;;;;;;;;21.40;82.10;;;;;;7596735;19;19930;-74
2023/07/06 09:18:16;;;;;;;;;;;21.50;82.50;;;;;;7596447;19;20448;-75
2023/07/06 09:20:49;;;;;;;;;;;21.60;81.70;;;;;;7596789;19;19929;-74
2023/07/06 09:23:21;;;;;;;;;;;21.60;82.40;;;;;;7602916;19;19914;-74
2023/07/06 09:25:54;;;;;;;;;;;21.60;80.40;;;;;;7598216;19;19918;-76
2023/07/06 09:28:29;;;;;;;;;;;21.60;81.30;;;;;;7595885;19;19945;-75
2023/07/06 09:31:06;;;;;;;;;;;21.80;81.50;;;;;;7591446;19;19937;-75
2023/07/06 09:33:42;;;;;;;;;;;21.80;80.80;;;;;;7593245;19;20063;-75
2023/07/06 09:36:19;;;;;;;;;;;22.00;83.10;;;;;;7603284;19;19925;-75
2023/07/06 09:38:52;;;;;;;;;;;22.20;80.10;;;;;;7593758;19;19923;-75
2023/07/06 09:41:26;;;;;;;;;;;22.10;78.90;;;;;;7584923;19;19923;-75
2023/07/06 09:43:59;;;;;;;;;;;22.00;81.40;;;;;;7579299;19;19926;-75
2023/07/06 09:46:33;;;;;;;;;;;22.10;80.70;;;;;;7601433;19;19918;-74
2023/07/06 09:49:12;;;;;;;;;;;22.10;81.10;;;;;;7598305;19;19919;-74
2023/07/06 09:51:50;;;;;;;;;;;21.90;80.70;;;;;;7594404;19;19922;-75
2023/07/06 09:54:25;;;;;;;;;;;21.90;79.90;;;;;;7594622;19;19919;-77
2023/07/06 09:56:58;;;;;;;;;;;21.90;81.40;;;;;;7597905;19;20704;-75
2023/07/06 09:59:30;;;;;;;;;;;22.00;81.30;;;;;;7600669;19;19926;-76
2023/07/06 10:02:15;;;;;;;;;;;22.00;81.00;;;;;;7604378;19;20416;-75
2023/07/06 10:05:04;;;;;;;;;;;22.00;79.60;;;;;;7592282;19;19915;-75
2023/07/06 10:07:39;;;;;;;;;;;22.00;81.20;;;;;;7599037;19;19919;-76
2023/07/06 10:10:11;;;;;;;;;;;22.10;81.00;;;;;;7589328;19;19930;-75
2023/07/06 10:12:47;;;;;;;;;;;22.20;80.00;;;;;;7586178;19;19930;-75
2023/07/06 10:15:37;;;;;;;;;;;22.30;80.50;;;;;;7595710;19;19918;-74
2023/07/06 10:18:21;;;;;;;;;;;22.30;80.10;;;;;;7598452;19;20450;-75
2023/07/06 10:20:53;;;;;;;;;;;22.10;80.70;;;;;;7580049;19;20896;-76
2023/07/06 10:23:32;;;;;;;;;;;22.40;81.10;;;;;;7593504;19;19918;-76
2023/07/06 10:26:09;;;;;;;;;;;22.70;80.50;;;;;;7592246;19;19926;-76
2023/07/06 10:28:47;;;;;;;;;;;23.10;80.30;;;;;;7597239;19;19929;-75
2023/07/06 10:31:22;;;;;;;;;;;23.30;80.00;;;;;;7592628;19;20138;-76
2023/07/06 10:34:15;;;;;;;;;;;23.60;77.00;;;;;;7585655;19;19910;-76
2023/07/06 10:36:47;;;;;;;;;;;23.80;75.40;;;;;;7597303;19;20825;-75
2023/07/06 10:39:26;;;;;;;;;;;24.30;75.90;;;;;;7572061;19;19934;-77
2023/07/06 10:41:59;;;;;;;;;;;;;;;;;;7589163;19;19929;-75
2023/07/06 10:44:33;;;;;;;;;;;;;;;;;;7586238;19;19933;-77
2023/07/06 10:47:05;;;;;;;;;;;;;;;;;;7597552;19;20343;-77
2023/07/06 10:49:38;;;;;;;;;;;;;;;;;;7577131;19;19927;-76
2023/07/06 10:52:10;;;;;;;;;;;;;;;;;;7595280;19;20345;-76
2023/07/06 10:54:46;;;;;;;;;;;24.70;75.00;;;;;;7593547;19;20858;-75
2023/07/06 10:57:18;;;;;;;;;;;25.10;69.70;;;;;;7567950;19;20811;-74
2023/07/06 10:59:52;;;;;;;;;;;24.50;70.80;;;;;;7576058;19;19934;-76
2023/07/06 11:02:33;;;;;;;;;;;24.30;72.10;;;;;;7573595;19;19947;-74
2023/07/06 11:05:10;;;;;;;;;;;24.80;71.00;;;;;;7574930;19;19999;-76
2023/07/06 11:07:45;;;;;;;;;;;25.20;70.30;;;;;;7564589;19;19946;-74
2023/07/06 11:10:24;;;;;;;;;;;25.10;70.00;;;;;;7573592;19;19926;-75
2023/07/06 11:13:04;;;;;;;;;;;24.70;70.50;;;;;;7575831;19;21593;-75
2023/07/06 11:15:38;;;;;;;;;;;25.00;71.70;;;;;;7579172;19;19926;-74
2023/07/06 11:18:17;;;;;;;;;;;25.50;71.70;;;;;;7591419;19;20457;-75
2023/07/06 11:21:08;;;;;;;;;;;25.40;65.80;;;;;;7581609;19;19922;-77
2023/07/06 11:23:48;;;;;;;;;;;25.50;66.80;;;;;;7560515;19;20549;-78
2023/07/06 11:26:30;;;;;;;;;;;25.90;67.80;;;;;;7521698;19;20035;-76
2023/07/06 11:29:02;;;;;;;;;;;26.10;66.10;;;;;;7567271;19;19926;-76
2023/07/06 11:31:37;;;;;;;;;;;26.10;67.20;;;;;;7583562;19;19922;-75
2023/07/06 11:34:18;;;;;;;;;;;26.40;65.60;;;;;;7567066;19;19926;-78
2023/07/06 11:36:56;;;;;;;;;;;26.80;64.70;;;;;;7576954;19;19922;-75
2023/07/06 11:39:49;;;;;;;;;;;26.90;63.20;;;;;;7584431;19;19915;-75
2023/07/06 11:42:24;;;;;;;;;;;27.10;64.70;;;;;;7580980;19;19922;-75
2023/07/06 11:45:01;;;;;;;;;;;26.90;62.40;;;;;;7594821;19;20953;-75
2023/07/06 11:47:35;;;;;;;;;;;26.30;61.70;;;;;;7587594;19;19925;-77
2023/07/06 11:50:12;;;;;;;;;;;25.90;64.10;;;;;;7545852;19;19944;-76
2023/07/06 11:52:57;;;;;;;;;;;26.20;64.50;;;;;;7567145;19;20852;-76
2023/07/06 11:55:34;;;;;;;;;;;26.70;64.60;;;;;;7598017;19;19919;-76
2023/07/06 11:58:42;;;;;;;;;;;26.50;61.40;;;;;;7606484;19;20778;-76
2023/07/06 12:01:32;;;;;;;;;;;25.90;60.80;;;;;;7596716;19;19930;-75
2023/07/06 12:04:10;;;;;;;;;;;25.80;63.60;;;;;;7598631;19;19923;-75
2023/07/06 12:06:42;;;;;;;;;;;26.00;64.70;;;;;;7598521;19;20457;-76
2023/07/06 12:09:16;;;;;;;;;;;26.50;64.30;;;;;;7615552;19;19986;-76
2023/07/06 12:11:58;;;;;;;;;;;26.60;62.30;;;;;;7575307;19;20906;-75
2023/07/06 12:14:34;;;;;;;;;;;27.00;61.10;;;;;;7593779;19;19923;-75
2023/07/06 12:17:08;;;;;;;;;;;27.10;60.30;;;;;;7596427;19;20799;-75
2023/07/06 12:19:41;;;;;;;;;;;27.60;61.10;;;;;;7583301;19;19923;-75
2023/07/06 12:22:15;;;;;;;;;;;27.60;58.50;;;;;;7576098;19;20016;-75
2023/07/06 12:24:50;;;;;;;;;;;27.40;58.00;;;;;;7567716;19;20726;-76
2023/07/06 12:27:22;;;;;;;;;;;27.10;59.70;;;;;;7599342;19;19989;-75
2023/07/06 12:30:06;;;;;;;;;;;26.80;60.60;;;;;;7552527;19;20425;-76
2023/07/06 12:32:39;;;;;;;;;;;26.60;60.20;;;;;;7577727;19;19919;-76
2023/07/06 12:35:11;;;;;;;;;;;26.30;61.80;;;;;;7593788;19;19990;-74
2023/07/06 12:37:44;;;;;;;;;;;25.80;61.10;;;;;;7578852;19;19998;-75
2023/07/06 12:40:18;;;;;;;;;;;26.00;61.40;;;;;;7570225;19;19943;-74
2023/07/06 12:42:52;;;;;;;;;;;26.50;59.60;;;;;;7561003;19;19915;-75
2023/07/06 12:45:25;;;;;;;;;;;27.10;58.70;;;;;;7589106;19;19922;-76
2023/07/06 12:47:58;;;;;;;;;;;27.80;60.50;;;;;;7558780;19;19923;-75
2023/07/06 12:50:35;;;;;;;;;;;28.10;57.20;;;;;;7544868;19;19936;-76
2023/07/06 12:53:22;;;;;;;;;;;28.20;55.50;;;;;;7566638;19;19926;-75
2023/07/06 12:56:00;;;;;;;;;;;28.00;57.40;;;;;;7565558;19;19918;-75
2023/07/06 12:58:35;;;;;;;;;;;27.80;57.20;;;;;;7581035;19;19926;-75
2023/07/06 13:01:10;;;;;;;;;;;27.10;58.20;;;;;;7571933;19;19947;-75
2023/07/06 13:03:46;;;;;;;;;;;26.90;57.90;;;;;;7574899;19;19922;-73
2023/07/06 13:06:20;;;;;;;;;;;26.70;58.90;;;;;;7557134;19;20179;-76
2023/07/06 13:08:56;;;;;;;;;;;26.40;59.80;;;;;;7551900;19;19965;-75
2023/07/06 13:11:28;;;;;;;;;;;26.30;60.20;;;;;;7562334;19;19919;-75
2023/07/06 13:14:04;;;;;;;;;;;26.10;59.60;;;;;;7566922;19;19922;-79
2023/07/06 13:16:39;;;;;;;;;;;25.90;61.20;;;;;;7519055;19;19926;-75
2023/07/06 13:19:12;;;;;;;;;;;26.00;62.50;;;;;;7565874;19;20011;-76
2023/07/06 13:21:44;;;;;;;;;;;26.30;62.10;;;;;;7558453;19;19915;-76
2023/07/06 13:24:17;;;;;;;;;;;26.40;60.50;;;;;;7525592;19;19933;-76
2023/07/06 13:26:53;;;;;;;;;;;26.40;61.00;;;;;;7533719;19;19986;-76
2023/07/06 13:29:34;;;;;;;;;;;26.20;60.50;;;;;;7541292;19;19921;-75
2023/07/06 13:32:17;;;;;;;;;;;26.20;61.00;;;;;;7523968;19;19933;-75
2023/07/06 13:34:50;;;;;;;;;;;26.30;59.80;;;;;;7553293;19;19922;-76
2023/07/06 13:37:24;;;;;;;;;;;26.80;59.00;;;;;;7550115;19;19926;-75
2023/07/06 13:39:59;;;;;;;;;;;27.20;60.60;;;;;;7548720;19;19918;-74
2023/07/06 13:42:33;;;;;;;;;;;27.60;58.80;;;;;;7543118;19;19998;-76
2023/07/06 13:45:12;;;;;;;;;;;27.80;56.30;;;;;;7550396;19;20690;-75
2023/07/06 13:47:44;;;;;;;;;;;27.90;56.80;;;;;;7599000;19;19950;-75
2023/07/06 13:50:17;;;;;;;;;;;27.50;57.60;;;;;;7578444;19;19914;-75
2023/07/06 13:52:51;;;;;;;;;;;27.30;57.60;;;;;;7583867;19;19918;-76
2023/07/06 13:55:32;;;;;;;;;;;27.20;58.20;;;;;;7521444;19;20205;-76
2023/07/06 13:58:06;;;;;;;;;;;26.90;58.50;;;;;;7522487;19;19922;-75
2023/07/06 14:00:39;;;;;;;;;;;26.70;59.40;;;;;;7560478;19;19915;-76
2023/07/06 14:03:15;;;;;;;;;;;26.40;59.50;;;;;;7498557;19;21498;-75
2023/07/06 14:05:48;;;;;;;;;;;26.10;59.60;;;;;;7568476;19;19927;-76
2023/07/06 14:08:22;;;;;;;;;;;25.90;62.20;;;;;;7582186;19;19919;-75
2023/07/06 14:10:54;;;;;;;;;;;25.80;60.70;;;;;;7566995;19;19960;-76
2023/07/06 14:13:27;;;;;;;;;;;25.70;62.00;;;;;;7542243;19;19923;-74
2023/07/06 14:16:00;;;;;;;;;;;25.60;60.40;;;;;;7555974;19;19929;-75
2023/07/06 14:18:33;;;;;;;;;;;25.50;60.20;;;;;;7583069;19;20017;-76
2023/07/06 14:21:05;;;;;;;;;;;25.50;61.80;;;;;;7558962;19;19929;-76
2023/07/06 14:23:37;;;;;;;;;;;25.50;61.00;;;;;;7590485;19;21267;-76
2023/07/06 14:26:10;;;;;;;;;;;25.60;59.50;;;;;;7537953;19;19990;-76
2023/07/06 14:28:49;;;;;;;;;;;25.30;60.70;;;;;;7564765;19;19919;-75
2023/07/06 14:31:23;;;;;;;;;;;25.40;59.80;;;;;;7582919;19;20204;-75
2023/07/06 14:33:55;;;;;;;;;;;25.80;60.90;;;;;;7595378;19;19925;-76
2023/07/06 14:36:28;;;;;;;;;;;26.50;60.90;;;;;;7570013;19;19925;-76
2023/07/06 14:39:00;;;;;;;;;;;26.70;58.30;;;;;;7547905;19;20296;-75
2023/07/06 14:41:32;;;;;;;;;;;26.20;58.50;;;;;;7571846;19;19930;-76
2023/07/06 14:44:04;;;;;;;;;;;25.90;59.00;;;;;;7587533;19;20381;-76
2023/07/06 14:46:36;;;;;;;;;;;25.80;61.40;;;;;;7585647;19;19926;-76
2023/07/06 14:49:09;;;;;;;;;;;25.70;61.70;;;;;;7590375;19;20364;-75
2023/07/06 14:51:41;;;;;;;;;;;25.60;61.30;;;;;;7580121;19;19946;-76
2023/07/06 14:54:13;;;;;;;;;;;25.50;62.30;;;;;;7592930;19;19919;-75
2023/07/06 14:56:46;;;;;;;;;;;25.40;62.50;;;;;;7585794;19;19917;-76
2023/07/06 14:59:18;;;;;;;;;;;25.80;63.30;;;;;;7550793;19;19933;-75
2023/07/06 15:01:50;;;;;;;;;;;26.10;62.20;;;;;;7573026;19;19962;-76
2023/07/06 15:04:23;;;;;;;;;;;26.20;59.40;;;;;;7523153;19;19966;-76
2023/07/06 15:06:55;;;;;;;;;;;26.10;60.80;;;;;;7552045;19;19933;-75